Time;durP1;ratioP1;P1;durP2;ratioP2;P2;SDS_P1;SDS_P2;PMS_P1;PMS_P2;Temp;Humidity;BMP_temperature;BMP_pressure;BME280_temperature;BME280_humidity;BME280_pressure;Samples;Min_cycle;Max_cycle;Signal;HPM_P1;HPM_P2
2022/05/04 00:02:21;;;;;;;7.93;3.60;;;;;;;;;;5075139;28;20717;-58
2022/05/04 00:04:47;;;;;;;7.63;4.00;;;;;;;;;;5075549;28;20207;-58
2022/05/04 00:07:14;;;;;;;6.87;3.93;;;;;;;;;;5075134;28;20434;-57
2022/05/04 00:09:40;;;;;;;8.53;4.17;;;;;;;;;;5075151;28;20203;-58
2022/05/04 00:12:07;;;;;;;9.43;3.60;;;;;;;;;;5075112;28;20580;-57
2022/05/04 00:14:33;;;;;;;7.30;4.00;;;;;;;;;;5075317;28;20195;-57
2022/05/04 00:16:59;;;;;;;6.17;3.63;;;;;;;;;;5074868;28;20238;-58
2022/05/04 00:19:25;;;;;;;12.33;4.40;;;;;;;;;;5075127;28;20199;-58
2022/05/04 00:21:51;;;;;;;12.90;4.10;;;;;;;;;;5074944;28;20442;-57
2022/05/04 00:24:20;;;;;;;9.47;3.57;;;;;;;;;;5074787;28;20539;-58
2022/05/04 00:26:46;;;;;;;8.40;3.60;;;;;;;;;;5075053;28;20231;-58
2022/05/04 00:29:12;;;;;;;9.80;3.80;;;;;;;;;;5075005;28;20946;-57
2022/05/04 00:31:38;;;;;;;10.00;3.63;;;;;;;;;;5074787;28;20456;-57
2022/05/04 00:34:04;;;;;;;9.83;3.93;;;;;;;;;;5074975;28;20796;-58
2022/05/04 00:36:31;;;;;;;7.53;3.93;;;;;;;;;;5074886;28;20261;-58
2022/05/04 00:38:57;;;;;;;7.80;3.90;;;;;;;;;;5074786;28;20209;-59
2022/05/04 00:41:24;;;;;;;10.03;4.43;;;;;;;;;;5074487;28;20250;-58
2022/05/04 00:43:51;;;;;;;9.17;3.77;;;;;;;;;;5074436;28;20481;-58
2022/05/04 00:46:18;;;;;;;5.97;3.93;;;;;;;;;;5074595;28;20204;-58
2022/05/04 00:48:44;;;;;;;7.93;3.57;;;;;;;;;;5074748;28;20646;-59
2022/05/04 00:51:10;;;;;;;6.17;3.67;;;;;;;;;;5074406;28;20257;-58
2022/05/04 00:53:36;;;;;;;7.67;3.83;;;;;;;;;;5074350;28;20432;-58
2022/05/04 00:56:02;;;;;;;6.97;3.97;;;;;;;;;;5074529;28;20457;-58
2022/05/04 01:01:16;;;;;;;11.00;4.47;;;;;;;;;;5074605;28;20484;-58
2022/05/04 01:03:42;;;;;;;6.47;4.20;;;;;;;;;;5074096;28;20231;-58
2022/05/04 01:06:08;;;;;;;10.53;4.37;;;;;;;;;;5074228;28;20293;-58
2022/05/04 01:08:34;;;;;;;7.93;4.90;;;;;;;;;;5074024;28;20724;-58
2022/05/04 01:11:00;;;;;;;8.73;4.40;;;;;;;;;;5074166;28;20537;-58
2022/05/04 01:13:26;;;;;;;11.47;4.63;;;;;;;;;;5074155;28;20441;-59
2022/05/04 01:15:53;;;;;;;8.57;4.30;;;;;;;;;;5073696;28;20257;-58
2022/05/04 01:18:20;;;;;;;9.53;4.40;;;;;;;;;;5073995;28;20525;-58
2022/05/04 01:20:46;;;;;;;6.23;4.33;;;;;;;;;;5073989;28;20203;-58
2022/05/04 01:23:13;;;;;;;7.03;4.03;;;;;;;;;;5073984;28;20547;-58
2022/05/04 01:25:39;;;;;;;6.33;3.97;;;;;;;;;;5073737;28;20478;-59
2022/05/04 01:28:05;;;;;;;9.00;5.00;;;;;;;;;;5073926;28;20473;-58
2022/05/04 01:30:32;;;;;;;10.50;4.40;;;;;;;;;;5074007;28;20222;-58
2022/05/04 01:32:58;;;;;;;9.10;4.63;;;;;;;;;;5073725;28;20442;-57
2022/05/04 01:35:24;;;;;;;7.13;4.30;;;;;;;;;;5073697;28;20529;-58
2022/05/04 01:37:50;;;;;;;6.17;4.50;;;;;;;;;;5073466;28;20532;-58
2022/05/04 01:40:18;;;;;;;11.47;4.57;;;;;;;;;;5073742;28;20242;-58
2022/05/04 01:42:44;;;;;;;9.90;4.73;;;;;;;;;;5073512;28;20228;-58
2022/05/04 01:45:11;;;;;;;12.00;4.70;;;;;;;;;;5073599;28;20437;-58
2022/05/04 01:47:37;;;;;;;10.70;4.93;;;;;;;;;;5073353;28;20690;-58
2022/05/04 01:50:03;;;;;;;6.57;4.57;;;;;;;;;;5073522;28;20430;-58
2022/05/04 01:52:29;;;;;;;8.13;4.83;;;;;;;;;;5073484;28;20434;-58
2022/05/04 01:54:55;;;;;;;7.20;4.87;;;;;;;;;;5073404;28;20425;-58
2022/05/04 01:57:23;;;;;;;7.13;4.53;;;;;;;;;;5073279;28;20441;-58
2022/05/04 01:59:49;;;;;;;8.27;4.90;;;;;;;;;;5073397;28;20200;-58
2022/05/04 02:02:14;;;;;;;10.33;5.50;;;;;;;;;;5073199;28;20446;-58
2022/05/04 02:04:41;;;;;;;13.60;5.80;;;;;;;;;;5073097;28;20199;-58
2022/05/04 02:07:07;;;;;;;10.63;4.70;;;;;;;;;;5073077;28;20689;-57
2022/05/04 02:09:33;;;;;;;8.00;5.10;;;;;;;;;;5072723;28;20472;-57
2022/05/04 02:11:59;;;;;;;6.23;4.50;;;;;;;;;;5073198;28;20446;-57
2022/05/04 02:14:27;;;;;;;9.87;4.93;;;;;;;;;;5072980;28;20241;-57
2022/05/04 02:16:53;;;;;;;10.50;4.70;;;;;;;;;;5072665;28;20521;-58
2022/05/04 02:19:19;;;;;;;8.90;5.00;;;;;;;;;;5072901;28;20548;-57
2022/05/04 02:21:45;;;;;;;9.93;4.50;;;;;;;;;;5072794;28;20854;-57
2022/05/04 02:24:11;;;;;;;9.07;4.77;;;;;;;;;;5072720;28;20481;-57
2022/05/04 02:26:37;;;;;;;6.90;4.80;;;;;;;;;;5072658;28;20441;-57
2022/05/04 02:29:03;;;;;;;11.00;5.40;;;;;;;;;;5072788;28;20253;-58
2022/05/04 02:31:30;;;;;;;6.43;4.80;;;;;;;;;;5072710;28;20570;-58
2022/05/04 02:33:56;;;;;;;9.57;4.40;;;;;;;;;;5072601;28;20840;-58
2022/05/04 02:39:07;;;;;;;7.00;4.77;;;;;;;;;;5072443;28;20261;-58
2022/05/04 02:41:33;;;;;;;9.90;5.17;;;;;;;;;;5072380;28;20944;-58
2022/05/04 02:44:01;;;;;;;10.27;4.90;;;;;;;;;;5072276;28;20243;-58
2022/05/04 02:46:28;;;;;;;10.63;5.40;;;;;;;;;;5072221;28;20984;-58
2022/05/04 02:48:55;;;;;;;8.27;4.97;;;;;;;;;;5072112;28;20446;-58
2022/05/04 02:51:21;;;;;;;6.50;4.80;;;;;;;;;;5072190;28;20442;-58
2022/05/04 02:53:47;;;;;;;10.20;4.97;;;;;;;;;;5072085;28;20500;-58
2022/05/04 02:56:15;;;;;;;8.10;5.10;;;;;;;;;;5072226;28;20233;-58
2022/05/04 02:58:41;;;;;;;8.23;4.97;;;;;;;;;;5072186;28;20200;-58
2022/05/04 03:02:26;;;;;;;10.00;5.63;;;;;;;;;;5071997;28;20479;-58
2022/05/04 03:03:56;;;;;;;8.80;5.43;;;;;;;;;;5071810;28;20227;-58
2022/05/04 03:06:22;;;;;;;11.07;4.70;;;;;;;;;;5072092;28;20438;-58
2022/05/04 03:08:48;;;;;;;10.00;5.60;;;;;;;;;;5071481;28;20846;-58
2022/05/04 03:13:59;;;;;;;7.13;4.80;;;;;;;;;;5072084;28;20199;-58
2022/05/04 03:16:25;;;;;;;8.60;5.07;;;;;;;;;;5071782;28;20909;-58
2022/05/04 03:18:51;;;;;;;7.00;5.00;;;;;;;;;;5072003;28;20794;-58
2022/05/04 03:21:18;;;;;;;9.77;4.93;;;;;;;;;;5071436;28;20480;-58
2022/05/04 03:23:44;;;;;;;7.13;5.20;;;;;;;;;;5071557;28;20598;-57
2022/05/04 03:26:10;;;;;;;9.37;5.17;;;;;;;;;;5071960;28;20422;-58
2022/05/04 03:28:36;;;;;;;8.00;5.27;;;;;;;;;;5071919;28;20529;-58
2022/05/04 03:31:02;;;;;;;11.43;5.80;;;;;;;;;;5071706;28;20940;-58
2022/05/04 03:33:28;;;;;;;11.10;5.87;;;;;;;;;;5071835;28;20437;-58
2022/05/04 03:35:54;;;;;;;7.47;5.47;;;;;;;;;;5071565;28;20633;-57
2022/05/04 03:38:22;;;;;;;9.40;5.67;;;;;;;;;;5071756;28;20195;-57
2022/05/04 03:40:48;;;;;;;10.23;5.70;;;;;;;;;;5071592;28;20207;-57
2022/05/04 03:43:14;;;;;;;8.87;6.33;;;;;;;;;;5071692;28;20860;-58
2022/05/04 03:45:39;;;;;;;7.87;5.33;;;;;;;;;;5071371;28;20285;-58
2022/05/04 03:48:06;;;;;;;10.03;6.10;;;;;;;;;;5071527;28;20196;-58
2022/05/04 03:50:32;;;;;;;8.73;5.70;;;;;;;;;;5071431;28;20199;-58
2022/05/04 03:52:58;;;;;;;7.00;5.10;;;;;;;;;;5071300;28;20847;-58
2022/05/04 03:55:25;;;;;;;15.27;6.70;;;;;;;;;;5071321;28;20210;-58
2022/05/04 03:57:51;;;;;;;9.83;5.60;;;;;;;;;;5071802;28;20210;-58
2022/05/04 04:00:17;;;;;;;11.73;5.53;;;;;;;;;;5071348;28;20785;-58
2022/05/04 04:02:43;;;;;;;10.87;5.60;;;;;;;;;;5071217;28;20265;-58
2022/05/04 04:05:10;;;;;;;8.90;5.70;;;;;;;;;;5071301;28;20442;-58
2022/05/04 04:07:36;;;;;;;12.07;6.07;;;;;;;;;;5071214;28;20475;-58
2022/05/04 04:10:02;;;;;;;15.03;5.47;;;;;;;;;;5071233;28;20487;-58
2022/05/04 04:12:30;;;;;;;8.90;5.33;;;;;;;;;;5071458;28;20421;-58
2022/05/04 04:14:56;;;;;;;8.07;5.40;;;;;;;;;;5070959;28;20438;-57
2022/05/04 04:17:22;;;;;;;8.70;5.33;;;;;;;;;;5071124;28;20838;-58
2022/05/04 04:21:50;;;;;;;8.13;5.70;;;;;;;;;;5071126;28;20219;-58
2022/05/04 04:22:34;;;;;;;10.10;6.30;;;;;;;;;;5071019;28;20465;-58
2022/05/04 04:25:00;;;;;;;8.77;5.37;;;;;;;;;;5071127;28;20523;-58
2022/05/04 04:27:27;;;;;;;9.60;6.10;;;;;;;;;;5071296;28;20561;-58
2022/05/04 04:29:54;;;;;;;7.60;5.63;;;;;;;;;;5071032;28;20952;-58
2022/05/04 04:32:20;;;;;;;10.00;6.10;;;;;;;;;;5070967;28;20469;-58
2022/05/04 04:34:46;;;;;;;8.17;5.70;;;;;;;;;;5074553;28;20928;-58
2022/05/04 04:37:12;;;;;;;11.63;5.63;;;;;;;;;;5074846;28;20231;-58
2022/05/04 04:39:38;;;;;;;7.53;5.67;;;;;;;;;;5074642;28;20199;-59
2022/05/04 04:42:04;;;;;;;13.80;6.77;;;;;;;;;;5074609;28;20511;-58
2022/05/04 04:44:30;;;;;;;14.33;6.43;;;;;;;;;;5074582;28;20490;-58
2022/05/04 04:46:58;;;;;;;11.53;6.60;;;;;;;;;;5074378;28;20449;-58
2022/05/04 04:49:25;;;;;;;7.07;5.80;;;;;;;;;;5074462;28;20574;-58
2022/05/04 04:51:51;;;;;;;17.20;6.73;;;;;;;;;;5074257;28;20433;-58
2022/05/04 04:54:17;;;;;;;8.73;6.37;;;;;;;;;;5074536;28;20441;-58
2022/05/04 04:56:43;;;;;;;12.03;6.30;;;;;;;;;;5074298;28;20719;-58
2022/05/04 04:59:09;;;;;;;12.10;6.90;;;;;;;;;;5074342;28;20798;-57
2022/05/04 05:01:38;;;;;;;9.07;5.87;;;;;;;;;;5074093;28;20442;-57
2022/05/04 05:04:05;;;;;;;12.93;6.00;;;;;;;;;;5074281;28;20247;-58
2022/05/04 05:06:31;;;;;;;8.43;5.97;;;;;;;;;;5074167;28;20449;-57
2022/05/04 05:08:57;;;;;;;12.07;6.77;;;;;;;;;;5074099;28;20511;-58
2022/05/04 05:11:23;;;;;;;11.50;6.33;;;;;;;;;;5074081;28;20517;-57
2022/05/04 05:16:34;;;;;;;8.90;6.10;;;;;;;;;;5073157;28;20288;-57
2022/05/04 05:19:00;;;;;;;14.63;7.20;;;;;;;;;;5073535;28;20932;-57
2022/05/04 05:21:28;;;;;;;7.67;6.00;;;;;;;;;;5073791;28;20188;-57
2022/05/04 05:23:53;;;;;;;10.97;7.00;;;;;;;;;;5073835;28;20231;-58
2022/05/04 05:26:19;;;;;;;9.03;6.17;;;;;;;;;;5073718;28;20865;-57
2022/05/04 05:28:47;;;;;;;11.37;6.50;;;;;;;;;;5073370;28;20195;-57
2022/05/04 05:31:13;;;;;;;11.70;7.27;;;;;;;;;;5073778;28;20222;-57
2022/05/04 05:33:39;;;;;;;11.60;7.13;;;;;;;;;;5073616;28;20525;-57
2022/05/04 05:36:07;;;;;;;13.80;7.13;;;;;;;;;;5073529;28;20513;-57
2022/05/04 05:38:34;;;;;;;16.03;7.80;;;;;;;;;;5073519;28;20210;-57
2022/05/04 05:41:01;;;;;;;11.70;7.77;;;;;;;;;;5073520;28;20508;-57
2022/05/04 05:43:28;;;;;;;17.77;7.93;;;;;;;;;;5073307;28;21041;-57
2022/05/04 05:45:54;;;;;;;8.63;6.63;;;;;;;;;;5072683;28;20447;-57
2022/05/04 05:48:20;;;;;;;15.03;7.60;;;;;;;;;;5073334;28;20933;-57
2022/05/04 05:50:47;;;;;;;12.47;8.00;;;;;;;;;;5073399;28;20573;-57
2022/05/04 05:53:14;;;;;;;11.97;7.40;;;;;;;;;;5073363;28;20831;-57
2022/05/04 05:55:41;;;;;;;11.33;7.03;;;;;;;;;;5073290;28;20631;-57
2022/05/04 05:58:09;;;;;;;11.27;7.90;;;;;;;;;;5073125;28;20453;-58
2022/05/04 06:00:35;;;;;;;15.90;7.93;;;;;;;;;;5072823;28;20690;-57
2022/05/04 06:03:02;;;;;;;10.77;7.40;;;;;;;;;;5073018;28;20521;-57
2022/05/04 06:05:28;;;;;;;13.27;7.57;;;;;;;;;;5073030;28;20654;-57
2022/05/04 06:07:54;;;;;;;14.83;7.10;;;;;;;;;;5072973;28;20195;-58
2022/05/04 06:10:20;;;;;;;13.40;6.83;;;;;;;;;;5072961;28;20631;-58
2022/05/04 06:12:47;;;;;;;10.93;6.23;;;;;;;;;;5072987;28;20198;-58
2022/05/04 06:15:16;;;;;;;10.50;6.50;;;;;;;;;;5072634;28;20330;-58
2022/05/04 06:17:44;;;;;;;9.07;6.20;;;;;;;;;;5072883;28;20218;-57
2022/05/04 06:20:10;;;;;;;13.20;6.37;;;;;;;;;;5072858;28;20200;-58
2022/05/04 06:22:36;;;;;;;10.33;5.87;;;;;;;;;;5072579;28;20191;-58
2022/05/04 06:25:02;;;;;;;11.37;5.73;;;;;;;;;;5072331;28;20227;-58
2022/05/04 06:27:29;;;;;;;11.93;5.17;;;;;;;;;;5072029;28;20715;-58
2022/05/04 06:35:26;;;;;;;13.77;6.00;;;;;;;;;;5072360;28;20202;-58
2022/05/04 06:37:53;;;;;;;13.03;6.03;;;;;;;;;;5072233;28;20241;-58
2022/05/04 06:40:20;;;;;;;9.60;5.47;;;;;;;;;;5072455;28;20195;-58
2022/05/04 06:42:46;;;;;;;9.63;5.00;;;;;;;;;;5072281;28;20585;-58
2022/05/04 06:45:13;;;;;;;12.53;4.70;;;;;;;;;;5072295;28;20222;-58
2022/05/04 06:47:39;;;;;;;12.83;4.70;;;;;;;;;;5072247;28;20196;-58
2022/05/04 06:50:06;;;;;;;8.93;4.43;;;;;;;;;;5072049;28;20200;-58
2022/05/04 06:52:32;;;;;;;11.00;4.60;;;;;;;;;;5071913;28;20562;-58
2022/05/04 06:54:58;;;;;;;7.30;3.97;;;;;;;;;;5072111;28;20245;-57
2022/05/04 06:57:24;;;;;;;11.30;4.17;;;;;;;;;;5071308;28;20204;-58
2022/05/04 06:59:51;;;;;;;12.47;4.13;;;;;;;;;;5071789;28;20256;-58
2022/05/04 07:02:18;;;;;;;8.63;3.97;;;;;;;;;;5072108;28;20196;-58
2022/05/04 07:04:44;;;;;;;10.43;4.73;;;;;;;;;;5071830;28;20231;-58
2022/05/04 07:07:10;;;;;;;8.33;3.93;;;;;;;;;;5071969;28;20201;-57
2022/05/04 07:09:36;;;;;;;10.03;4.07;;;;;;;;;;5071830;28;20719;-58
2022/05/04 07:12:03;;;;;;;10.00;3.63;;;;;;;;;;5071829;28;20226;-57
2022/05/04 07:14:29;;;;;;;9.00;4.00;;;;;;;;;;5071844;28;20249;-58
2022/05/04 07:16:55;;;;;;;8.80;3.77;;;;;;;;;;5071376;28;20247;-58
2022/05/04 07:19:22;;;;;;;14.20;3.97;;;;;;;;;;5071428;28;20278;-58
2022/05/04 07:21:48;;;;;;;10.93;4.07;;;;;;;;;;5071363;28;20203;-58
2022/05/04 07:24:14;;;;;;;8.33;3.57;;;;;;;;;;5071673;28;20318;-58
2022/05/04 07:26:40;;;;;;;12.90;3.83;;;;;;;;;;5071639;28;20242;-58
2022/05/04 07:29:06;;;;;;;18.57;3.77;;;;;;;;;;5071549;28;20199;-58
2022/05/04 07:31:32;;;;;;;9.17;3.93;;;;;;;;;;5071392;28;20509;-58
2022/05/04 07:33:59;;;;;;;8.17;4.20;;;;;;;;;;5071628;28;20191;-58
2022/05/04 07:36:26;;;;;;;8.87;4.30;;;;;;;;;;5071685;28;20258;-58
2022/05/04 07:38:52;;;;;;;8.00;3.60;;;;;;;;;;5071406;28;20214;-58
2022/05/04 07:44:03;;;;;;;5.50;3.60;;;;;;;;;;5071635;28;20587;-58
2022/05/04 07:46:29;;;;;;;8.57;3.93;;;;;;;;;;5071557;28;20543;-57
2022/05/04 07:48:55;;;;;;;8.80;3.90;;;;;;;;;;5071397;28;20213;-58
2022/05/04 07:51:21;;;;;;;8.40;3.77;;;;;;;;;;5071526;28;20200;-58
2022/05/04 07:53:49;;;;;;;12.00;3.70;;;;;;;;;;5071253;28;20217;-58
2022/05/04 07:56:15;;;;;;;11.37;3.20;;;;;;;;;;5071346;28;20247;-58
2022/05/04 07:58:41;;;;;;;6.40;3.20;;;;;;;;;;5071351;28;20196;-58
2022/05/04 08:06:36;;;;;;;12.47;3.63;;;;;;;;;;5071262;28;20237;-57
2022/05/04 08:09:04;;;;;;;7.87;2.83;;;;;;;;;;5073917;28;20265;-57
2022/05/04 08:11:30;;;;;;;6.40;2.87;;;;;;;;;;5075303;28;20247;-58
2022/05/04 08:13:56;;;;;;;9.37;2.93;;;;;;;;;;5075136;28;20242;-57
2022/05/04 08:16:22;;;;;;;6.13;2.97;;;;;;;;;;5074906;28;20282;-57
2022/05/04 08:18:48;;;;;;;8.40;3.67;;;;;;;;;;5074965;28;20191;-58
2022/05/04 08:21:14;;;;;;;10.53;2.87;;;;;;;;;;5075257;28;20202;-57
2022/05/04 08:23:40;;;;;;;10.37;3.33;;;;;;;;;;5074680;28;20224;-58
2022/05/04 08:26:08;;;;;;;9.97;2.77;;;;;;;;;;5074986;28;20206;-58
2022/05/04 08:28:34;;;;;;;9.47;2.70;;;;;;;;;;5074803;28;20234;-58
2022/05/04 08:31:00;;;;;;;8.03;2.67;;;;;;;;;;5074614;28;20202;-59
2022/05/04 08:33:26;;;;;;;4.70;2.47;;;;;;;;;;5074815;28;20538;-57
2022/05/04 08:35:52;;;;;;;8.00;2.60;;;;;;;;;;5074633;28;20222;-57
2022/05/04 08:38:18;;;;;;;8.40;2.73;;;;;;;;;;5074776;28;20191;-58
2022/05/04 08:40:44;;;;;;;4.80;2.60;;;;;;;;;;5074647;28;20203;-64
2022/05/04 08:43:13;;;;;;;9.43;2.90;;;;;;;;;;5074654;28;20253;-61
2022/05/04 08:45:40;;;;;;;8.53;3.50;;;;;;;;;;5074276;28;20214;-61
2022/05/04 08:48:07;;;;;;;8.20;3.33;;;;;;;;;;5074370;28;20270;-57
2022/05/04 08:50:34;;;;;;;7.63;3.07;;;;;;;;;;5074351;28;20180;-58
2022/05/04 08:53:01;;;;;;;5.70;2.80;;;;;;;;;;5074534;28;20278;-60
2022/05/04 08:55:30;;;;;;;7.77;2.57;;;;;;;;;;5074541;28;20199;-60
2022/05/04 08:57:58;;;;;;;8.57;2.77;;;;;;;;;;5074075;28;20283;-60
2022/05/04 09:00:26;;;;;;;7.07;2.87;;;;;;;;;;5074070;28;20203;-58
2022/05/04 09:02:52;;;;;;;7.73;2.67;;;;;;;;;;5073963;28;20204;-58
2022/05/04 09:05:19;;;;;;;5.30;2.53;;;;;;;;;;5074003;28;20195;-58
2022/05/04 09:07:47;;;;;;;7.17;3.00;;;;;;;;;;5073991;28;20250;-58
2022/05/04 09:10:17;;;;;;;7.97;3.33;;;;;;;;;;5074305;28;20302;-54
2022/05/04 09:12:43;;;;;;;8.00;2.50;;;;;;;;;;5073972;28;20562;-53
2022/05/04 09:15:16;;;;;;;7.13;2.80;;;;;;;;;;5073804;28;20246;-53
2022/05/04 09:17:44;;;;;;;7.07;3.10;;;;;;;;;;5073869;28;20616;-53
2022/05/04 09:22:56;;;;;;;7.83;3.00;;;;;;;;;;5073692;28;20208;-55
2022/05/04 09:25:25;;;;;;;6.83;2.83;;;;;;;;;;5073778;28;20755;-55
2022/05/04 09:27:51;;;;;;;6.03;2.63;;;;;;;;;;5073670;28;20308;-55
2022/05/04 09:30:23;;;;;;;6.03;2.77;;;;;;;;;;5073748;28;20210;-55
2022/05/04 09:32:50;;;;;;;8.27;2.80;;;;;;;;;;5073438;28;20231;-55
2022/05/04 09:35:17;;;;;;;4.03;2.40;;;;;;;;;;5073592;28;20209;-54
2022/05/04 09:46:03;;;;;;;12.33;3.20;;;;;;;;;;5073527;28;20203;-55
2022/05/04 09:48:31;;;;;;;5.23;2.57;;;;;;;;;;5073400;28;20313;-55
2022/05/04 09:51:01;;;;;;;5.70;2.73;;;;;;;;;;5073135;28;20619;-56
2022/05/04 09:53:27;;;;;;;6.00;2.57;;;;;;;;;;5073213;28;20202;-55
2022/05/04 09:55:55;;;;;;;4.90;2.57;;;;;;;;;;5073309;28;20277;-56
2022/05/04 09:58:23;;;;;;;6.63;2.90;;;;;;;;;;5073094;28;20422;-55
2022/05/04 10:00:51;;;;;;;5.30;2.60;;;;;;;;;;5072968;28;20191;-55
2022/05/04 10:03:18;;;;;;;5.07;2.80;;;;;;;;;;5072899;28;20720;-56
2022/05/04 10:05:46;;;;;;;6.43;2.77;;;;;;;;;;5072763;28;20209;-56
2022/05/04 10:08:12;;;;;;;5.43;2.67;;;;;;;;;;5073260;28;20203;-55
2022/05/04 10:10:38;;;;;;;4.67;2.43;;;;;;;;;;5072978;28;20191;-56
2022/05/04 10:13:04;;;;;;;5.23;2.73;;;;;;;;;;5073075;28;20555;-56
2022/05/04 10:15:31;;;;;;;3.40;2.63;;;;;;;;;;5072708;28;20227;-56
2022/05/04 10:18:01;;;;;;;6.23;2.73;;;;;;;;;;5072812;28;20211;-56
2022/05/04 10:20:30;;;;;;;7.33;3.00;;;;;;;;;;5072768;28;20199;-56
2022/05/04 10:22:59;;;;;;;6.37;2.70;;;;;;;;;;5072691;28;20207;-56
2022/05/04 10:25:26;;;;;;;5.20;2.73;;;;;;;;;;5072622;28;20219;-56
2022/05/04 10:28:03;;;;;;;6.40;2.93;;;;;;;;;;5072673;28;20199;-55
2022/05/04 10:30:33;;;;;;;5.83;3.23;;;;;;;;;;5072503;28;20206;-55
2022/05/04 10:32:59;;;;;;;7.60;3.20;;;;;;;;;;5072589;28;20257;-55
2022/05/04 10:35:32;;;;;;;8.00;3.10;;;;;;;;;;5072662;28;20207;-55
2022/05/04 10:38:08;;;;;;;6.87;2.90;;;;;;;;;;5072375;28;20234;-55
2022/05/04 10:40:34;;;;;;;6.63;2.70;;;;;;;;;;5072616;28;20290;-55
2022/05/04 10:43:04;;;;;;;6.10;2.90;;;;;;;;;;5072524;28;20222;-55
2022/05/04 10:45:31;;;;;;;7.83;3.07;;;;;;;;;;5072527;28;20207;-56
2022/05/04 10:48:15;;;;;;;5.53;2.47;;;;;;;;;;5072320;28;20242;-55
2022/05/04 10:50:48;;;;;;;6.70;3.20;;;;;;;;;;5072333;28;20221;-55
2022/05/04 10:53:36;;;;;;;6.60;3.50;;;;;;;;;;5072353;28;20195;-55
2022/05/04 10:56:07;;;;;;;7.43;3.00;;;;;;;;;;5070676;28;20249;-56
2022/05/04 10:58:34;;;;;;;6.23;3.70;;;;;;;;;;5072111;28;20198;-56
2022/05/04 11:01:04;;;;;;;6.17;3.07;;;;;;;;;;5072179;28;20664;-55
2022/05/04 11:03:32;;;;;;;4.40;3.07;;;;;;;;;;5072029;28;20555;-56
2022/05/04 11:05:59;;;;;;;5.77;3.20;;;;;;;;;;5072189;28;20218;-56
2022/05/04 11:08:34;;;;;;;5.97;3.40;;;;;;;;;;5072135;28;20717;-56
2022/05/04 11:11:01;;;;;;;6.83;3.00;;;;;;;;;;5072059;28;20202;-55
2022/05/04 11:13:27;;;;;;;8.83;3.00;;;;;;;;;;5072025;28;20229;-55
2022/05/04 11:15:53;;;;;;;4.97;3.20;;;;;;;;;;5071506;28;20234;-55
2022/05/04 11:18:20;;;;;;;6.40;3.57;;;;;;;;;;5071829;28;20206;-56
2022/05/04 11:20:46;;;;;;;8.03;3.40;;;;;;;;;;5071748;28;20209;-55
2022/05/04 11:23:12;;;;;;;9.30;3.43;;;;;;;;;;5071701;28;20253;-55
2022/05/04 11:25:38;;;;;;;13.30;3.50;;;;;;;;;;5071556;28;20219;-57
2022/05/04 11:28:07;;;;;;;6.10;3.80;;;;;;;;;;5071147;28;20759;-56
2022/05/04 11:30:33;;;;;;;6.07;3.27;;;;;;;;;;5071813;28;20218;-57
2022/05/04 11:33:06;;;;;;;7.83;3.80;;;;;;;;;;5071547;28;20570;-57
2022/05/04 11:35:34;;;;;;;8.70;3.30;;;;;;;;;;5071729;28;20222;-56
2022/05/04 11:38:00;;;;;;;8.63;3.80;;;;;;;;;;5071355;28;20241;-56
2022/05/04 11:40:26;;;;;;;6.13;3.23;;;;;;;;;;5071670;28;20231;-56
2022/05/04 11:42:52;;;;;;;10.10;3.63;;;;;;;;;;5069235;28;20210;-56
2022/05/04 11:45:20;;;;;;;7.03;3.30;;;;;;;;;;5071388;28;20204;-56
2022/05/04 11:47:46;;;;;;;7.83;3.37;;;;;;;;;;5075571;28;20207;-54
2022/05/04 11:50:12;;;;;;;6.43;3.33;;;;;;;;;;5091713;28;20538;-55
2022/05/04 11:52:41;;;;;;;7.77;3.80;;;;;;;;;;5091650;28;20202;-55
2022/05/04 11:55:07;;;;;;;11.13;3.80;;;;;;;;;;5091527;28;20199;-54
2022/05/04 11:57:41;;;;;;;6.87;3.97;;;;;;;;;;5091826;28;20191;-55
2022/05/04 12:00:12;;;;;;;7.80;3.73;;;;;;;;;;5091593;28;20203;-55
2022/05/04 12:02:40;;;;;;;8.03;4.17;;;;;;;;;;5091678;28;20203;-54
2022/05/04 12:05:06;;;;;;;7.77;3.80;;;;;;;;;;5091406;28;20291;-55
2022/05/04 12:07:32;;;;;;;8.50;4.00;;;;;;;;;;5089843;28;20247;-56
2022/05/04 12:09:58;;;;;;;7.23;4.20;;;;;;;;;;5091697;28;20194;-56
2022/05/04 12:12:24;;;;;;;9.40;4.13;;;;;;;;;;5091777;28;20565;-56
2022/05/04 12:14:52;;;;;;;8.73;4.20;;;;;;;;;;5091577;28;20195;-57
2022/05/04 12:17:24;;;;;;;6.27;3.70;;;;;;;;;;5091656;28;20227;-56
2022/05/04 12:19:52;;;;;;;7.37;3.93;;;;;;;;;;5091396;28;20195;-55
2022/05/04 12:22:21;;;;;;;8.93;3.90;;;;;;;;;;5089929;28;20195;-56
2022/05/04 12:24:47;;;;;;;7.40;4.47;;;;;;;;;;5091145;28;20235;-56
2022/05/04 12:27:15;;;;;;;8.73;3.77;;;;;;;;;;5091432;28;20195;-57
2022/05/04 12:35:11;;;;;;;6.73;3.80;;;;;;;;;;5091037;28;20190;-56
2022/05/04 12:37:38;;;;;;;9.90;3.90;;;;;;;;;;5091001;28;20300;-56
2022/05/04 12:40:04;;;;;;;9.63;3.17;;;;;;;;;;5090888;28;20225;-56
2022/05/04 12:42:31;;;;;;;6.37;3.90;;;;;;;;;;5091097;28;20291;-56
2022/05/04 12:44:59;;;;;;;11.37;3.70;;;;;;;;;;5090763;28;20267;-56
2022/05/04 12:47:25;;;;;;;11.87;4.23;;;;;;;;;;5090849;28;20201;-57
2022/05/04 12:49:54;;;;;;;9.17;4.57;;;;;;;;;;5090839;28;20217;-56
2022/05/04 12:52:22;;;;;;;7.17;4.30;;;;;;;;;;5090934;28;20206;-55
2022/05/04 12:54:48;;;;;;;7.23;4.03;;;;;;;;;;5091266;28;20202;-55
2022/05/04 12:57:14;;;;;;;7.40;3.97;;;;;;;;;;5094641;28;20202;-55
2022/05/04 12:59:40;;;;;;;10.40;3.90;;;;;;;;;;5094116;28;20195;-57
2022/05/04 13:02:06;;;;;;;8.93;4.40;;;;;;;;;;5094002;28;20603;-56
2022/05/04 13:04:32;;;;;;;8.00;4.20;;;;;;;;;;5094649;28;20265;-57
2022/05/04 13:07:01;;;;;;;6.80;4.30;;;;;;;;;;5094555;28;20223;-56
2022/05/04 13:09:28;;;;;;;7.07;4.70;;;;;;;;;;5094587;28;20191;-55
2022/05/04 13:11:54;;;;;;;7.27;4.50;;;;;;;;;;5094363;28;20225;-55
2022/05/04 13:14:20;;;;;;;13.07;4.50;;;;;;;;;;5092316;28;20238;-55
2022/05/04 13:16:46;;;;;;;7.57;5.00;;;;;;;;;;5092374;28;20233;-55
2022/05/04 13:19:12;;;;;;;5.30;3.90;;;;;;;;;;5093777;28;20198;-55
2022/05/04 13:21:38;;;;;;;6.00;4.57;;;;;;;;;;5094134;28;20629;-55
2022/05/04 13:24:05;;;;;;;9.30;4.47;;;;;;;;;;5093880;28;20300;-56
2022/05/04 13:26:32;;;;;;;7.03;4.43;;;;;;;;;;5093873;28;20642;-55
2022/05/04 13:28:58;;;;;;;7.23;4.43;;;;;;;;;;5094029;28;20191;-55
2022/05/04 13:31:24;;;;;;;10.10;4.90;;;;;;;;;;5093685;28;20239;-55
2022/05/04 13:33:52;;;;;;;7.77;3.83;;;;;;;;;;5093435;28;20226;-55
2022/05/04 13:36:18;;;;;;;9.90;5.00;;;;;;;;;;5093938;28;20203;-55
2022/05/04 13:38:44;;;;;;;6.37;4.83;;;;;;;;;;5093824;28;20267;-56
2022/05/04 13:41:10;;;;;;;8.77;5.37;;;;;;;;;;5093629;28;20696;-56
2022/05/04 13:43:37;;;;;;;8.27;5.00;;;;;;;;;;5093312;28;20722;-56
2022/05/04 13:46:03;;;;;;;6.57;4.57;;;;;;;;;;5093311;28;20201;-56
2022/05/04 13:48:29;;;;;;;7.27;4.30;;;;;;;;;;5093473;28;20289;-56
2022/05/04 13:53:47;;;;;;;9.27;4.40;;;;;;;;;;5069726;28;20259;-56
2022/05/04 13:56:13;;;;;;;11.37;4.90;;;;;;;;;;5093784;28;20202;-56
2022/05/04 13:58:41;;;;;;;8.43;4.43;;;;;;;;;;5093378;28;20195;-56
2022/05/04 14:01:07;;;;;;;7.20;4.53;;;;;;;;;;5093339;28;20575;-56
2022/05/04 14:03:35;;;;;;;8.57;4.13;;;;;;;;;;5093339;28;20223;-56
2022/05/04 14:06:01;;;;;;;9.47;4.27;;;;;;;;;;5092681;28;20205;-56
2022/05/04 14:08:27;;;;;;;6.67;3.87;;;;;;;;;;5093401;28;20209;-54
2022/05/04 14:10:57;;;;;;;7.97;4.13;;;;;;;;;;5093183;28;20512;-55
2022/05/04 14:13:24;;;;;;;7.50;3.80;;;;;;;;;;5093383;28;20202;-55
2022/05/04 14:15:54;;;;;;;8.03;4.03;;;;;;;;;;5092694;28;20248;-55
2022/05/04 14:18:20;;;;;;;5.83;3.90;;;;;;;;;;5093153;28;20207;-55
2022/05/04 14:20:47;;;;;;;7.53;4.33;;;;;;;;;;5092822;28;20290;-55
2022/05/04 14:23:13;;;;;;;8.57;4.20;;;;;;;;;;5093091;28;20210;-55
2022/05/04 14:25:40;;;;;;;7.03;3.93;;;;;;;;;;5092934;28;20238;-56
2022/05/04 14:28:06;;;;;;;6.77;4.30;;;;;;;;;;5092781;28;20282;-56
2022/05/04 14:30:34;;;;;;;7.13;3.80;;;;;;;;;;5093005;28;20199;-59
2022/05/04 14:33:02;;;;;;;6.17;3.67;;;;;;;;;;5093061;28;20206;-57
2022/05/04 14:35:28;;;;;;;8.93;3.33;;;;;;;;;;5093128;28;20195;-56
2022/05/04 14:37:54;;;;;;;6.30;3.70;;;;;;;;;;5092918;28;20276;-55
2022/05/04 14:40:20;;;;;;;5.70;4.10;;;;;;;;;;5092993;28;20340;-56
2022/05/04 14:42:47;;;;;;;7.87;3.63;;;;;;;;;;5092951;28;20203;-57
2022/05/04 14:45:13;;;;;;;6.20;3.80;;;;;;;;;;5092761;28;20255;-57
2022/05/04 14:47:39;;;;;;;7.93;3.97;;;;;;;;;;5092876;28;20194;-57
2022/05/04 14:50:07;;;;;;;7.87;3.67;;;;;;;;;;5092700;28;20196;-57
2022/05/04 14:52:33;;;;;;;8.73;3.63;;;;;;;;;;5092822;28;20203;-57
2022/05/04 14:54:59;;;;;;;5.50;3.67;;;;;;;;;;5092638;28;20294;-57
2022/05/04 14:57:25;;;;;;;7.60;4.27;;;;;;;;;;5092711;28;20195;-57
2022/05/04 14:59:51;;;;;;;9.07;4.30;;;;;;;;;;5092395;28;20199;-57
2022/05/04 15:02:17;;;;;;;7.40;3.50;;;;;;;;;;5092612;28;20198;-57
2022/05/04 15:05:02;;;;;;;6.07;3.60;;;;;;;;;;5092502;28;20717;-57
2022/05/04 15:07:29;;;;;;;7.30;3.40;;;;;;;;;;5092622;28;20194;-57
2022/05/04 15:09:55;;;;;;;6.60;3.70;;;;;;;;;;5090441;28;20207;-57
2022/05/04 15:12:21;;;;;;;7.03;3.90;;;;;;;;;;5092484;28;20195;-57
2022/05/04 15:14:47;;;;;;;8.53;3.90;;;;;;;;;;5092151;28;20195;-58
2022/05/04 15:17:13;;;;;;;5.93;3.73;;;;;;;;;;5091557;28;20288;-56
2022/05/04 15:19:39;;;;;;;6.93;3.90;;;;;;;;;;5091817;28;20195;-57
2022/05/04 15:22:05;;;;;;;6.53;4.23;;;;;;;;;;5092025;28;20220;-58